createdAt,value
2018-05-07T00:00:26.633Z,2.47
2018-05-07T00:02:54.078Z,2.13
2018-05-07T00:05:21.607Z,2.40
2018-05-07T00:07:49.064Z,2.50
2018-05-07T00:10:16.521Z,2.43
2018-05-07T00:12:44.009Z,2.40
2018-05-07T00:15:11.467Z,1.87
2018-05-07T00:17:38.953Z,2.17
2018-05-07T00:20:06.428Z,2.20
2018-05-07T00:22:34.675Z,2.30
2018-05-07T00:25:02.163Z,2.30
2018-05-07T00:27:29.665Z,2.27
2018-05-07T00:29:57.167Z,2.10
2018-05-07T00:32:25.388Z,1.83
2018-05-07T00:34:52.886Z,2.70
2018-05-07T00:37:20.348Z,2.30
2018-05-07T00:39:48.600Z,2.30
2018-05-07T00:42:16.073Z,2.03
2018-05-07T00:44:43.590Z,2.22
2018-05-07T00:47:11.072Z,2.40
2018-05-07T00:49:38.545Z,2.40
2018-05-07T00:52:06.032Z,2.22
2018-05-07T00:54:46.181Z,2.40
2018-05-07T00:57:14.450Z,2.12
2018-05-07T00:59:41.912Z,2.10
2018-05-07T01:02:10.192Z,2.45
2018-05-07T01:04:38.470Z,2.00
2018-05-07T01:07:06.707Z,2.12
2018-05-07T01:09:34.197Z,2.30
2018-05-07T01:12:02.471Z,2.50
2018-05-07T01:14:29.945Z,2.50
2018-05-07T01:16:58.193Z,1.80
2018-05-07T01:19:25.705Z,2.00
2018-05-07T01:21:53.173Z,2.22
2018-05-07T01:24:20.849Z,1.95
2018-05-07T01:26:48.355Z,1.80
2018-05-07T01:29:15.805Z,2.40
2018-05-07T01:31:43.293Z,2.87
2018-05-07T01:34:10.761Z,2.15
2018-05-07T01:36:38.242Z,2.60
2018-05-07T01:39:05.734Z,1.92
2018-05-07T01:41:33.224Z,2.10
2018-05-07T01:44:00.717Z,2.65
2018-05-07T01:46:28.176Z,2.72
2018-05-07T01:48:55.677Z,2.30
2018-05-07T01:51:23.132Z,3.50
2018-05-07T01:53:50.625Z,2.70
2018-05-07T01:56:18.076Z,2.80
2018-05-07T01:58:45.616Z,2.90
2018-05-07T02:01:13.162Z,2.60
2018-05-07T02:03:40.652Z,3.17
2018-05-07T02:06:08.873Z,2.17
2018-05-07T02:08:36.389Z,2.37
2018-05-07T02:11:04.633Z,2.30
2018-05-07T02:13:32.128Z,2.53
2018-05-07T02:16:00.353Z,2.30
2018-05-07T02:18:27.832Z,2.40
2018-05-07T02:20:55.314Z,2.40
2018-05-07T02:23:23.553Z,2.50
2018-05-07T02:25:51.129Z,2.00
2018-05-07T02:28:18.611Z,2.67
2018-05-07T02:30:46.846Z,2.60
2018-05-07T02:33:14.320Z,2.05
2018-05-07T02:35:41.810Z,2.08
2018-05-07T02:38:09.288Z,2.58
2018-05-07T02:40:36.798Z,2.22
2018-05-07T02:43:04.253Z,2.40
2018-05-07T02:45:31.728Z,2.35
2018-05-07T02:48:00.609Z,2.25
2018-05-07T02:50:28.085Z,2.45
2018-05-07T02:52:56.354Z,2.37
2018-05-07T02:55:24.596Z,2.40
2018-05-07T02:57:52.066Z,2.85
2018-05-07T03:00:19.579Z,2.00
2018-05-07T03:02:47.061Z,2.15
2018-05-07T03:05:14.517Z,2.58
2018-05-07T03:07:42.012Z,2.50
2018-05-07T03:10:09.476Z,2.30
2018-05-07T03:12:36.925Z,2.25
2018-05-07T03:15:04.422Z,2.65
2018-05-07T03:17:31.950Z,2.33
2018-05-07T03:19:59.404Z,2.20
2018-05-07T03:22:26.879Z,2.85
2018-05-07T03:24:54.400Z,2.67
2018-05-07T03:27:21.884Z,3.00
2018-05-07T03:29:49.378Z,2.72
2018-05-07T03:32:16.837Z,2.55
2018-05-07T03:34:44.381Z,2.50
2018-05-07T03:37:12.597Z,2.67
2018-05-07T03:39:40.110Z,2.78
2018-05-07T03:42:08.336Z,2.42
2018-05-07T03:44:35.880Z,2.10
2018-05-07T03:47:03.369Z,2.80
2018-05-07T03:49:30.837Z,3.55
2018-05-07T03:51:58.316Z,2.95
2018-05-07T03:54:26.548Z,3.10
2018-05-07T03:56:54.024Z,2.83
2018-05-07T03:59:23.008Z,2.47
2018-05-07T04:01:50.509Z,2.97
2018-05-07T04:04:18.772Z,3.03
2018-05-07T04:06:46.238Z,2.47
2018-05-07T04:09:14.495Z,3.08
2018-05-07T04:11:42.024Z,2.78
2018-05-07T04:14:09.473Z,2.87
2018-05-07T04:16:48.869Z,2.72
2018-05-07T04:19:29.100Z,2.90
2018-05-07T04:22:08.651Z,2.70
2018-05-07T04:24:36.105Z,3.08
2018-05-07T04:27:03.596Z,2.78
2018-05-07T04:29:31.081Z,3.05
2018-05-07T04:31:58.565Z,2.90
2018-05-07T04:34:26.059Z,3.62
2018-05-07T04:36:54.309Z,2.90
2018-05-07T04:39:21.792Z,3.30
2018-05-07T04:41:50.040Z,2.95
2018-05-07T04:44:17.525Z,3.83
2018-05-07T04:46:45.785Z,3.50
2018-05-07T04:49:13.275Z,3.30
2018-05-07T04:51:40.786Z,4.15
2018-05-07T04:54:08.270Z,3.08
2018-05-07T04:56:36.521Z,3.30
2018-05-07T04:59:03.987Z,3.20
2018-05-07T05:01:31.495Z,3.05
2018-05-07T05:03:58.949Z,3.08
2018-05-07T05:06:26.445Z,3.35
2018-05-07T05:08:53.928Z,3.22
2018-05-07T05:11:21.411Z,3.50
2018-05-07T05:13:49.633Z,3.05
2018-05-07T05:16:17.097Z,3.70
2018-05-07T05:18:44.605Z,4.47
2018-05-07T05:21:12.867Z,3.90
2018-05-07T05:23:40.351Z,3.50
2018-05-07T05:26:07.839Z,4.72
2018-05-07T05:28:35.340Z,4.85
2018-05-07T05:31:02.820Z,4.12
2018-05-07T05:33:31.078Z,3.60
2018-05-07T05:35:58.571Z,4.07
2018-05-07T05:38:26.081Z,3.87
2018-05-07T05:40:53.570Z,3.70
2018-05-07T05:43:21.846Z,4.28
2018-05-07T05:45:50.075Z,3.35
2018-05-07T05:48:17.556Z,3.03
2018-05-07T05:50:45.033Z,3.87
2018-05-07T05:53:13.296Z,3.28
2018-05-07T05:55:40.796Z,3.08
2018-05-07T05:58:08.319Z,3.42
2018-05-07T06:00:36.576Z,3.20
2018-05-07T06:03:04.056Z,3.33
2018-05-07T06:05:31.551Z,3.27
2018-05-07T06:07:59.029Z,3.00
2018-05-07T06:10:26.537Z,3.00
2018-05-07T06:12:54.771Z,3.13
2018-05-07T06:15:22.265Z,3.00
2018-05-07T06:17:50.497Z,2.63
2018-05-07T06:20:17.966Z,2.73
2018-05-07T06:22:45.478Z,2.53
2018-05-07T06:25:12.973Z,3.03
2018-05-07T06:27:40.467Z,3.27
2018-05-07T06:30:07.960Z,2.37
2018-05-07T06:32:35.450Z,2.80
2018-05-07T06:35:02.916Z,2.30
2018-05-07T06:37:30.426Z,2.60
2018-05-07T06:39:58.653Z,2.73
2018-05-07T06:42:26.177Z,3.27
2018-05-07T06:44:53.631Z,3.07
2018-05-07T06:47:21.117Z,3.10
2018-05-07T06:49:48.632Z,2.60
2018-05-07T06:52:16.865Z,2.90
2018-05-07T06:54:44.381Z,2.73
2018-05-07T06:57:11.839Z,3.17
2018-05-07T06:59:40.119Z,2.30
2018-05-07T07:02:08.414Z,2.90
2018-05-07T07:04:36.660Z,2.80
2018-05-07T07:07:04.900Z,2.50
2018-05-07T07:09:32.373Z,2.97
2018-05-07T07:11:59.881Z,2.20
2018-05-07T07:14:27.365Z,2.60
2018-05-07T07:16:54.826Z,2.67
2018-05-07T07:19:22.340Z,3.07
2018-05-07T07:21:50.611Z,3.13
2018-05-07T07:24:18.083Z,2.60
2018-05-07T07:26:45.589Z,2.30
2018-05-07T07:29:13.052Z,2.93
2018-05-07T07:31:40.562Z,3.03
2018-05-07T07:34:08.053Z,2.43
2018-05-07T07:36:35.545Z,2.83
2018-05-07T07:39:03.052Z,2.40
2018-05-07T07:41:30.557Z,2.43
2018-05-07T07:43:59.549Z,2.17
2018-05-07T07:46:27.801Z,2.77
2018-05-07T07:48:55.276Z,2.50
2018-05-07T07:51:23.551Z,2.50
2018-05-07T07:53:52.542Z,2.70
2018-05-07T07:56:20.024Z,2.53
2018-05-07T07:58:47.513Z,2.30
2018-05-07T08:01:14.978Z,2.60
2018-05-07T08:03:42.489Z,2.40
2018-05-07T08:06:10.730Z,2.40
2018-05-07T08:08:38.242Z,2.60
2018-05-07T08:11:05.801Z,2.23
2018-05-07T08:13:34.075Z,2.30
2018-05-07T08:16:02.302Z,2.93
2018-05-07T08:18:29.819Z,2.40
2018-05-07T08:20:58.041Z,2.37
2018-05-07T08:23:25.544Z,2.17
2018-05-07T08:25:53.790Z,2.30
2018-05-07T08:28:21.264Z,2.63
2018-05-07T08:30:48.790Z,2.43
2018-05-07T08:33:16.241Z,2.50
2018-05-07T08:35:43.737Z,2.57
2018-05-07T08:38:11.189Z,2.57
2018-05-07T08:40:38.698Z,2.33
2018-05-07T08:43:06.188Z,2.23
2018-05-07T08:45:33.676Z,2.20
2018-05-07T08:48:01.154Z,2.73
2018-05-07T08:50:29.423Z,2.60
2018-05-07T08:52:57.710Z,2.10
2018-05-07T08:55:25.181Z,2.27
2018-05-07T08:57:52.633Z,2.63
2018-05-07T09:00:20.191Z,2.27
2018-05-07T09:02:47.690Z,2.20
2018-05-07T09:05:15.189Z,1.90
2018-05-07T09:07:42.673Z,2.37
2018-05-07T09:10:10.177Z,2.53
2018-05-07T09:12:37.673Z,2.10
2018-05-07T09:15:05.980Z,2.37
2018-05-07T09:17:33.441Z,2.50
2018-05-07T09:20:00.964Z,2.23
2018-05-07T09:22:28.435Z,1.80
2018-05-07T09:24:56.702Z,2.00
2018-05-07T09:27:24.957Z,2.20
2018-05-07T09:29:52.441Z,2.30
2018-05-07T09:32:20.708Z,2.13
2018-05-07T09:34:48.954Z,1.83
2018-05-07T09:37:16.475Z,2.60
2018-05-07T09:39:43.936Z,1.60
2018-05-07T09:42:11.461Z,2.17
2018-05-07T09:44:38.930Z,1.97
2018-05-07T09:47:07.193Z,1.77
2018-05-07T09:49:34.658Z,2.27
2018-05-07T09:52:02.962Z,1.80
2018-05-07T09:54:30.422Z,1.80
2018-05-07T09:56:58.895Z,1.80
2018-05-07T09:59:26.312Z,1.77
2018-05-07T10:01:53.810Z,1.90
2018-05-07T10:04:22.058Z,2.27
2018-05-07T10:06:49.534Z,2.17
2018-05-07T10:09:17.811Z,2.90
2018-05-07T10:11:45.313Z,1.63
2018-05-07T10:14:12.844Z,1.67
2018-05-07T10:16:41.073Z,1.80
2018-05-07T10:19:08.604Z,1.80
2018-05-07T10:21:36.100Z,1.83
2018-05-07T10:24:03.583Z,2.07
2018-05-07T10:26:31.859Z,1.80
2018-05-07T10:29:00.121Z,1.73
2018-05-07T10:31:27.612Z,1.87
2018-05-07T10:33:55.081Z,1.60
2018-05-07T10:36:22.605Z,2.20
2018-05-07T10:38:50.834Z,1.80
2018-05-07T10:41:18.340Z,1.87
2018-05-07T10:43:46.612Z,1.50
2018-05-07T10:46:14.099Z,2.03
2018-05-07T10:48:41.597Z,1.60
2018-05-07T10:51:09.100Z,2.00
2018-05-07T10:53:37.341Z,2.10
2018-05-07T10:56:04.825Z,2.30
2018-05-07T10:58:33.105Z,1.77
2018-05-07T11:01:01.342Z,1.80
2018-05-07T11:03:28.858Z,1.90
2018-05-07T11:05:56.318Z,1.90
2018-05-07T11:08:23.797Z,2.03
2018-05-07T11:10:51.281Z,1.40
2018-05-07T11:13:18.787Z,1.80
2018-05-07T11:15:47.030Z,1.60
2018-05-07T11:18:14.533Z,1.70
2018-05-07T11:20:42.035Z,2.30
2018-05-07T11:23:09.522Z,1.83
2018-05-07T11:25:37.760Z,1.97
2018-05-07T11:28:05.252Z,1.43
2018-05-07T11:30:32.728Z,2.20
2018-05-07T11:33:01.000Z,1.60
2018-05-07T11:35:29.258Z,1.90
2018-05-07T11:37:56.772Z,1.50
2018-05-07T11:40:24.263Z,1.60
2018-05-07T11:42:51.742Z,1.63
2018-05-07T11:45:19.249Z,1.50
2018-05-07T11:47:46.815Z,1.93
2018-05-07T11:50:14.269Z,1.83
2018-05-07T11:52:41.757Z,2.00
2018-05-07T11:55:09.274Z,1.77
2018-05-07T11:57:36.744Z,1.80
2018-05-07T12:00:04.231Z,1.90
2018-05-07T12:02:31.809Z,1.93
2018-05-07T12:04:59.240Z,1.70
2018-05-07T12:07:26.781Z,2.30
2018-05-07T12:09:54.280Z,1.60
2018-05-07T12:12:21.786Z,1.63
2018-05-07T12:14:49.308Z,2.23
2018-05-07T12:17:19.230Z,1.73
2018-05-07T12:19:47.526Z,2.20
2018-05-07T12:22:15.804Z,1.83
2018-05-07T12:24:44.073Z,1.93
2018-05-07T12:27:12.337Z,2.07
2018-05-07T12:29:39.813Z,1.90
2018-05-07T12:32:07.355Z,1.93
2018-05-07T12:34:35.590Z,2.20
2018-05-07T12:37:03.083Z,2.00
2018-05-07T12:39:30.571Z,2.10
2018-05-07T12:41:58.069Z,2.17
2018-05-07T12:44:25.555Z,2.00
2018-05-07T12:46:53.151Z,1.93
2018-05-07T12:49:20.580Z,1.90
2018-05-07T12:51:48.841Z,1.73
2018-05-07T12:54:16.330Z,2.00
2018-05-07T12:56:44.618Z,1.60
2018-05-07T12:59:12.877Z,1.90
2018-05-07T13:01:41.145Z,1.97
2018-05-07T13:04:08.621Z,2.10
2018-05-07T13:06:36.913Z,2.00
2018-05-07T13:09:05.233Z,2.23
2018-05-07T13:11:32.726Z,2.13
2018-05-07T13:14:00.221Z,2.47
2018-05-07T13:16:27.754Z,2.23
2018-05-07T13:18:55.977Z,1.90
2018-05-07T13:21:23.569Z,2.43
2018-05-07T13:23:51.050Z,1.63
2018-05-07T13:26:19.326Z,1.90
2018-05-07T13:28:47.592Z,2.43
2018-05-07T13:31:15.844Z,2.17
2018-05-07T13:33:43.345Z,2.67
2018-05-07T13:36:10.829Z,1.87
2018-05-07T13:38:38.370Z,1.97
2018-05-07T13:41:05.882Z,2.00
2018-05-07T13:43:33.382Z,1.73
2018-05-07T13:46:00.856Z,2.47
2018-05-07T13:48:28.381Z,2.37
2018-05-07T13:50:57.087Z,1.77
2018-05-07T13:53:24.615Z,1.80
2018-05-07T13:55:52.849Z,1.70
2018-05-07T13:58:20.309Z,2.50
2018-05-07T14:00:47.858Z,1.73
2018-05-07T14:03:16.105Z,1.77
2018-05-07T14:05:44.391Z,2.00
2018-05-07T14:08:12.637Z,2.70
2018-05-07T14:10:40.137Z,1.83
2018-05-07T14:13:07.599Z,2.20
2018-05-07T14:15:35.149Z,2.20
2018-05-07T14:18:03.407Z,2.50
2018-05-07T14:20:31.661Z,2.30
2018-05-07T14:22:59.136Z,2.50
2018-05-07T14:25:27.398Z,2.20
2018-05-07T14:27:54.927Z,2.87
2018-05-07T14:30:22.417Z,2.50
2018-05-07T14:32:49.910Z,2.37
2018-05-07T14:35:18.149Z,2.23
2018-05-07T14:37:45.644Z,1.97
2018-05-07T14:40:13.143Z,2.70
2018-05-07T14:42:40.634Z,2.20
2018-05-07T14:45:08.101Z,2.13
2018-05-07T14:47:35.605Z,2.03
2018-05-07T14:50:03.204Z,1.90
2018-05-07T14:52:30.732Z,2.60
2018-05-07T14:54:58.268Z,2.13
2018-05-07T14:57:25.793Z,2.47
2018-05-07T14:59:53.286Z,2.37
2018-05-07T15:02:20.737Z,2.37
2018-05-07T15:04:48.249Z,2.23
2018-05-07T15:07:15.730Z,1.90
2018-05-07T15:09:43.226Z,3.00
2018-05-07T15:12:10.675Z,2.40
2018-05-07T15:14:38.189Z,1.90
2018-05-07T15:17:05.686Z,1.80
2018-05-07T15:19:33.928Z,2.10
2018-05-07T15:22:01.405Z,2.70
2018-05-07T15:27:27.852Z,2.13
2018-05-07T15:29:55.370Z,2.07
2018-05-07T15:32:22.866Z,3.10
2018-05-07T15:34:50.379Z,2.23
2018-05-07T15:37:18.703Z,2.20
2018-05-07T15:39:46.206Z,2.23
2018-05-07T15:42:13.683Z,2.73
2018-05-07T15:44:41.197Z,2.67
2018-05-07T15:47:09.482Z,2.60
2018-05-07T15:49:37.710Z,2.10
2018-05-07T15:52:05.205Z,2.00
2018-05-07T15:54:33.909Z,2.70
2018-05-07T15:57:01.440Z,2.30
2018-05-07T15:59:28.910Z,2.67
2018-05-07T16:01:57.781Z,3.13
2018-05-07T16:04:25.273Z,2.53
2018-05-07T16:06:53.549Z,2.13
2018-05-07T16:09:21.821Z,2.33
2018-05-07T16:11:50.090Z,2.60
2018-05-07T16:14:18.321Z,2.43
2018-05-07T16:16:45.808Z,2.30
2018-05-07T16:19:14.098Z,2.40
2018-05-07T16:21:42.553Z,1.93
2018-05-07T16:24:10.683Z,2.30
2018-05-07T16:26:38.165Z,2.20
2018-05-07T16:29:06.278Z,2.57
2018-05-07T16:31:33.895Z,2.30
2018-05-07T16:34:01.403Z,2.40
2018-05-07T16:36:29.669Z,2.27
2018-05-07T16:38:57.198Z,2.30
2018-05-07T16:41:24.691Z,1.90
2018-05-07T16:43:52.165Z,2.30
2018-05-07T16:46:20.451Z,2.13
2018-05-07T16:48:48.753Z,2.23
2018-05-07T16:51:16.220Z,2.40
2018-05-07T16:53:43.672Z,2.27
2018-05-07T16:56:11.178Z,2.30
2018-05-07T16:58:38.660Z,1.50
2018-05-07T17:01:06.919Z,2.30
2018-05-07T17:03:34.380Z,2.77
2018-05-07T17:06:02.661Z,2.47
2018-05-07T17:08:30.930Z,1.70
2018-05-07T17:10:58.437Z,2.50
2018-05-07T17:13:25.955Z,2.17
2018-05-07T17:15:54.188Z,2.30
2018-05-07T17:18:21.693Z,2.17
2018-05-07T17:20:49.937Z,1.90
2018-05-07T17:23:17.437Z,2.17
2018-05-07T17:25:45.674Z,1.90
2018-05-07T17:28:13.183Z,2.40
2018-05-07T17:30:40.650Z,2.27
2018-05-07T17:33:08.181Z,2.00
2018-05-07T17:35:36.428Z,2.60
2018-05-07T17:38:03.929Z,2.03
2018-05-07T17:40:32.172Z,2.53
2018-05-07T17:42:59.643Z,2.50
2018-05-07T17:45:39.149Z,3.13
2018-05-07T17:48:18.563Z,2.00
2018-05-07T17:50:46.071Z,2.00
2018-05-07T17:53:13.550Z,1.93
2018-05-07T17:55:41.828Z,2.53
2018-05-07T17:58:10.053Z,2.17
2018-05-07T18:00:37.564Z,2.13
2018-05-07T18:03:05.818Z,1.80
2018-05-07T18:05:33.335Z,2.30
2018-05-07T18:08:00.797Z,2.20
2018-05-07T18:10:28.303Z,2.30
2018-05-07T18:12:55.811Z,2.07
2018-05-07T18:15:23.400Z,2.90
2018-05-07T18:17:50.887Z,2.10
2018-05-07T18:20:18.360Z,2.30
2018-05-07T18:22:46.602Z,2.30
2018-05-07T18:25:14.096Z,2.43
2018-05-07T18:27:42.355Z,2.50
2018-05-07T18:30:10.594Z,2.57
2018-05-07T18:32:38.133Z,2.40
2018-05-07T18:35:05.597Z,2.00
2018-05-07T18:37:33.102Z,2.20
2018-05-07T18:40:00.589Z,2.50
2018-05-07T18:42:28.853Z,2.40
2018-05-07T18:44:57.097Z,2.43
2018-05-07T18:47:24.560Z,2.60
2018-05-07T18:49:52.064Z,2.90
2018-05-07T18:52:19.542Z,2.73
2018-05-07T18:54:47.082Z,3.10
2018-05-07T18:57:14.559Z,2.40
2018-05-07T18:59:42.050Z,2.60
2018-05-07T19:02:09.514Z,2.53
2018-05-07T19:04:37.003Z,2.50
2018-05-07T19:07:05.275Z,2.27
2018-05-07T19:09:34.312Z,2.80
2018-05-07T19:12:01.794Z,2.40
2018-05-07T19:14:29.358Z,2.17
2018-05-07T19:16:56.790Z,2.57
2018-05-07T19:19:24.305Z,2.47
2018-05-07T19:21:52.549Z,2.20
2018-05-07T19:24:21.572Z,2.40
2018-05-07T19:26:49.812Z,2.17
2018-05-07T19:29:17.273Z,2.13
2018-05-07T19:31:44.763Z,2.03
2018-05-07T19:34:13.018Z,2.43
2018-05-07T19:36:41.263Z,2.20
2018-05-07T19:39:08.760Z,2.60
2018-05-07T19:41:36.263Z,2.13
2018-05-07T19:44:03.733Z,2.20
2018-05-07T19:46:31.255Z,2.80
2018-05-07T19:48:59.494Z,2.60
2018-05-07T19:51:27.036Z,2.10
2018-05-07T19:53:54.522Z,2.70
2018-05-07T19:56:22.029Z,2.67
2018-05-07T19:58:50.270Z,2.13
2018-05-07T20:01:18.540Z,2.30
2018-05-07T20:03:47.540Z,2.80
2018-05-07T20:06:15.032Z,2.20
2018-05-07T20:08:42.520Z,2.50
2018-05-07T20:11:10.013Z,1.90
2018-05-07T20:13:38.254Z,2.30
2018-05-07T20:16:05.726Z,2.17
2018-05-07T20:18:33.239Z,2.80
2018-05-07T20:21:00.752Z,2.80
2018-05-07T20:23:28.264Z,2.63
2018-05-07T20:25:55.719Z,2.70
2018-05-07T20:28:24.142Z,3.10
2018-05-07T20:30:51.646Z,2.53
2018-05-07T20:33:20.968Z,2.10
2018-05-07T20:35:52.281Z,2.40
2018-05-07T20:38:20.672Z,2.83
2018-05-07T20:40:48.938Z,2.70
2018-05-07T20:43:16.432Z,3.73
2018-05-07T20:45:43.896Z,3.20
2018-05-07T20:48:11.480Z,3.50
2018-05-07T20:50:38.941Z,3.00
2018-05-07T20:53:06.437Z,2.53
2018-05-07T20:55:33.933Z,2.87
2018-05-07T20:58:01.421Z,3.03
2018-05-07T21:00:28.939Z,3.27
2018-05-07T21:02:56.414Z,3.17
2018-05-07T21:05:23.920Z,2.97
2018-05-07T21:07:51.380Z,3.10
2018-05-07T21:10:19.669Z,3.00
2018-05-07T21:12:47.910Z,3.43
2018-05-07T21:15:15.413Z,2.47
2018-05-07T21:17:43.662Z,2.80
2018-05-07T21:20:11.161Z,3.00
2018-05-07T21:22:38.642Z,3.13
2018-05-07T21:25:06.170Z,3.20
2018-05-07T21:27:34.398Z,3.60
2018-05-07T21:30:01.930Z,2.93
2018-05-07T21:32:29.395Z,3.30
2018-05-07T21:34:56.864Z,2.90
2018-05-07T21:37:24.381Z,3.43
2018-05-07T21:39:52.623Z,3.07
2018-05-07T21:42:20.160Z,3.50
2018-05-07T21:44:47.668Z,3.83
2018-05-07T21:47:15.936Z,3.43
2018-05-07T21:49:44.169Z,4.00
2018-05-07T21:52:11.682Z,3.00
2018-05-07T21:54:39.916Z,3.40
2018-05-07T21:57:07.404Z,3.43
2018-05-07T21:59:35.652Z,3.43
2018-05-07T22:02:03.164Z,2.90
2018-05-07T22:04:30.645Z,2.70
2018-05-07T22:06:58.145Z,3.13
2018-05-07T22:09:25.624Z,3.43
2018-05-07T22:11:53.929Z,3.03
2018-05-07T22:14:21.400Z,4.23
2018-05-07T22:16:48.904Z,3.63
2018-05-07T22:19:16.409Z,3.53
2018-05-07T22:21:43.928Z,3.30
2018-05-07T22:24:12.182Z,3.63
2018-05-07T22:26:39.651Z,3.50
2018-05-07T22:29:07.153Z,3.20
2018-05-07T22:31:34.617Z,2.90
2018-05-07T22:34:02.109Z,4.20
2018-05-07T22:36:29.622Z,3.63
2018-05-07T22:39:14.731Z,3.07
2018-05-07T22:41:42.224Z,3.20
2018-05-07T22:44:10.489Z,3.60
2018-05-07T22:46:37.969Z,3.30
2018-05-07T22:49:06.227Z,3.37
2018-05-07T22:51:33.714Z,3.40
2018-05-07T22:54:01.210Z,3.30
2018-05-07T22:56:28.712Z,3.67
2018-05-07T22:58:56.981Z,3.53
2018-05-07T23:01:24.452Z,3.20
2018-05-07T23:03:52.734Z,3.70
2018-05-07T23:06:20.974Z,3.35
2018-05-07T23:08:48.437Z,3.53
2018-05-07T23:11:15.945Z,4.00
2018-05-07T23:13:43.424Z,3.42
2018-05-07T23:16:10.913Z,3.92
2018-05-07T23:18:38.397Z,3.70
2018-05-07T23:21:06.672Z,3.58
2018-05-07T23:23:34.901Z,3.60
2018-05-07T23:26:02.398Z,3.42
2018-05-07T23:28:29.865Z,3.70
2018-05-07T23:30:58.124Z,3.87
2018-05-07T23:33:25.594Z,3.20
2018-05-07T23:35:53.854Z,3.60
2018-05-07T23:38:21.317Z,3.72
2018-05-07T23:40:48.829Z,3.30
2018-05-07T23:43:16.301Z,3.37
2018-05-07T23:45:43.825Z,3.60
2018-05-07T23:48:12.087Z,3.78
2018-05-07T23:50:40.321Z,4.00
2018-05-07T23:53:07.841Z,3.58
2018-05-07T23:55:35.308Z,3.33
2018-05-07T23:58:02.792Z,3.95
